createdAt,value
2022-09-30T00:01:38.514Z,25.94
2022-09-30T00:03:18.244Z,25.93
2022-09-30T00:04:58.107Z,25.94
2022-09-30T00:06:37.758Z,25.93
2022-09-30T00:08:17.629Z,25.93
2022-09-30T00:09:57.281Z,25.92
2022-09-30T00:11:37.095Z,25.93
2022-09-30T00:13:16.954Z,25.93
2022-09-30T00:14:56.721Z,25.92
2022-09-30T00:16:36.364Z,25.92
2022-09-30T00:18:16.249Z,25.92
2022-09-30T00:19:56.004Z,25.92
2022-09-30T00:21:35.760Z,25.92
2022-09-30T00:23:15.466Z,25.92
2022-09-30T00:24:55.266Z,25.92
2022-09-30T00:26:34.948Z,25.91
2022-09-30T00:28:14.725Z,25.91
2022-09-30T00:29:54.497Z,25.91
2022-09-30T00:31:34.264Z,25.91
2022-09-30T00:33:14.018Z,25.91
2022-09-30T00:34:53.885Z,25.91
2022-09-30T00:36:33.555Z,25.91
2022-09-30T00:38:13.333Z,25.91
2022-09-30T00:39:53.126Z,25.9
2022-09-30T00:41:32.866Z,25.9
2022-09-30T00:43:12.622Z,25.9
2022-09-30T00:44:52.403Z,25.9
2022-09-30T00:46:32.203Z,25.9
2022-09-30T00:48:11.934Z,25.9
2022-09-30T00:49:51.697Z,25.9
2022-09-30T00:51:31.467Z,25.9
2022-09-30T00:53:11.223Z,25.89
2022-09-30T00:54:51.023Z,25.89
2022-09-30T00:56:30.806Z,25.89
2022-09-30T00:58:10.560Z,25.89
2022-09-30T00:59:50.307Z,25.89
2022-09-30T01:01:30.131Z,25.89
2022-09-30T01:03:09.867Z,25.89
2022-09-30T01:04:49.596Z,25.89
2022-09-30T01:06:29.365Z,25.88
2022-09-30T01:08:09.137Z,25.88
2022-09-30T01:09:48.924Z,25.88
2022-09-30T01:11:28.671Z,25.88
2022-09-30T01:13:08.509Z,25.88
2022-09-30T01:14:48.210Z,25.88
2022-09-30T01:18:07.732Z,25.87
2022-09-30T01:19:47.535Z,25.87
2022-09-30T01:21:27.276Z,25.87
2022-09-30T01:23:07.057Z,25.87
2022-09-30T01:24:46.818Z,25.86
2022-09-30T01:26:26.591Z,25.87
2022-09-30T01:28:06.353Z,25.86
2022-09-30T01:29:46.118Z,25.86
2022-09-30T01:31:25.873Z,25.86
2022-09-30T01:33:05.656Z,25.86
2022-09-30T01:34:45.422Z,25.86
2022-09-30T01:36:25.176Z,25.86
2022-09-30T01:38:04.957Z,25.86
2022-09-30T01:39:44.739Z,25.85
2022-09-30T01:41:24.478Z,25.85
2022-09-30T01:43:04.272Z,25.84
2022-09-30T01:44:44.021Z,25.85
2022-09-30T01:46:23.799Z,25.85
2022-09-30T01:48:03.549Z,25.85
2022-09-30T01:49:43.329Z,25.85
2022-09-30T01:51:23.107Z,25.85
2022-09-30T01:53:02.873Z,25.84
2022-09-30T01:54:42.682Z,25.84
2022-09-30T01:56:22.391Z,25.84
2022-09-30T01:58:02.157Z,25.84
2022-09-30T01:59:41.929Z,25.84
2022-09-30T02:01:21.693Z,25.84
2022-09-30T02:03:01.478Z,25.84
2022-09-30T02:04:41.217Z,25.83
2022-09-30T02:06:21.009Z,25.83
2022-09-30T02:08:00.769Z,25.8
2022-09-30T02:09:40.534Z,25.83
2022-09-30T02:11:20.316Z,25.83
2022-09-30T02:13:00.161Z,25.82
2022-09-30T02:14:39.842Z,25.82
2022-09-30T02:16:19.590Z,25.82
2022-09-30T02:17:59.369Z,25.82
2022-09-30T02:19:39.127Z,25.81
2022-09-30T02:21:18.917Z,25.81
2022-09-30T02:22:58.711Z,25.82
2022-09-30T02:24:38.438Z,25.81
2022-09-30T02:26:18.224Z,25.81
2022-09-30T02:27:58.054Z,25.81
2022-09-30T02:29:37.743Z,25.81
2022-09-30T02:31:17.506Z,25.8
2022-09-30T02:32:57.280Z,25.7
2022-09-30T02:34:37.074Z,25.8
2022-09-30T02:36:16.811Z,25.8
2022-09-30T02:37:56.566Z,25.8
2022-09-30T02:39:36.339Z,25.79
2022-09-30T02:41:16.177Z,25.8
2022-09-30T02:42:55.862Z,25.79
2022-09-30T02:44:35.631Z,25.79
2022-09-30T02:46:15.409Z,25.79
2022-09-30T02:47:55.189Z,25.79
2022-09-30T02:49:34.945Z,25.78
2022-09-30T02:51:14.708Z,25.78
2022-09-30T02:52:54.490Z,25.79
2022-09-30T02:54:34.248Z,25.78
2022-09-30T02:56:14.045Z,25.78
2022-09-30T02:57:53.778Z,25.7
2022-09-30T02:59:33.559Z,25.77
2022-09-30T03:01:13.329Z,25.77
2022-09-30T03:02:53.087Z,25.77
2022-09-30T03:04:32.832Z,25.77
2022-09-30T03:06:12.605Z,25.77
2022-09-30T03:07:52.367Z,25.77
2022-09-30T03:09:32.165Z,25.77
2022-09-30T03:11:11.903Z,25.77
2022-09-30T03:12:51.678Z,25.77
2022-09-30T03:14:31.469Z,25.76
2022-09-30T03:16:11.209Z,25.77
2022-09-30T03:17:50.995Z,25.76
2022-09-30T03:19:30.747Z,25.76
2022-09-30T03:21:10.557Z,25.76
2022-09-30T03:22:50.277Z,25.68
2022-09-30T03:24:30.058Z,25.75
2022-09-30T03:26:09.820Z,25.75
2022-09-30T03:27:49.592Z,25.75
2022-09-30T03:31:09.128Z,25.75
2022-09-30T03:32:48.899Z,25.75
2022-09-30T03:34:28.701Z,25.74
2022-09-30T03:36:08.455Z,25.74
2022-09-30T03:37:48.222Z,25.74
2022-09-30T03:39:27.999Z,25.74
2022-09-30T03:41:07.732Z,25.74
2022-09-30T03:42:47.525Z,25.74
2022-09-30T03:44:27.275Z,25.74
2022-09-30T03:46:07.084Z,25.73
2022-09-30T03:47:46.802Z,25.66
2022-09-30T03:49:26.592Z,25.73
2022-09-30T03:51:06.351Z,25.73
2022-09-30T03:52:46.131Z,25.73
2022-09-30T03:54:25.874Z,25.73
2022-09-30T03:56:05.634Z,25.73
2022-09-30T03:57:45.391Z,25.73
2022-09-30T03:59:25.152Z,25.72
2022-09-30T04:01:04.920Z,25.72
2022-09-30T04:02:44.684Z,25.72
2022-09-30T04:04:24.465Z,25.72
2022-09-30T04:06:04.213Z,25.72
2022-09-30T04:07:44.005Z,25.71
2022-09-30T04:09:23.740Z,25.71
2022-09-30T04:11:03.507Z,25.67
2022-09-30T04:12:43.276Z,25.71
2022-09-30T04:14:23.054Z,25.71
2022-09-30T04:16:02.802Z,25.71
2022-09-30T04:17:42.568Z,25.71
2022-09-30T04:19:22.319Z,25.71
2022-09-30T04:21:02.093Z,25.71
2022-09-30T04:22:41.855Z,25.71
2022-09-30T04:24:21.620Z,25.71
2022-09-30T04:26:01.388Z,25.7
2022-09-30T04:27:41.152Z,25.7
2022-09-30T04:29:20.912Z,25.7
2022-09-30T04:31:00.675Z,25.7
2022-09-30T04:32:40.442Z,25.7
2022-09-30T04:34:20.213Z,25.69
2022-09-30T04:35:59.970Z,25.69
2022-09-30T04:37:39.745Z,25.7
2022-09-30T04:39:19.497Z,25.7
2022-09-30T04:40:59.257Z,25.7
2022-09-30T04:42:39.016Z,25.7
2022-09-30T04:44:18.831Z,25.7
2022-09-30T04:45:58.557Z,25.7
2022-09-30T04:47:38.305Z,25.68
2022-09-30T04:49:18.077Z,25.68
2022-09-30T04:50:57.850Z,25.68
2022-09-30T04:52:37.687Z,25.67
2022-09-30T04:54:17.373Z,25.67
2022-09-30T04:55:57.189Z,25.66
2022-09-30T04:57:36.909Z,25.66
2022-09-30T04:59:16.662Z,25.66
2022-09-30T05:00:56.437Z,25.66
2022-09-30T05:02:36.201Z,25.67
2022-09-30T05:04:15.968Z,25.66
2022-09-30T05:05:55.751Z,25.67
2022-09-30T05:07:35.528Z,25.66
2022-09-30T05:09:15.252Z,25.67
2022-09-30T05:10:55.014Z,25.66
2022-09-30T05:12:34.798Z,25.67
2022-09-30T05:14:14.541Z,25.67
2022-09-30T05:15:54.303Z,25.68
2022-09-30T05:17:34.061Z,25.68
2022-09-30T05:19:13.839Z,25.69
2022-09-30T05:20:53.588Z,25.7
2022-09-30T05:22:33.363Z,25.68
2022-09-30T05:24:13.167Z,25.71
2022-09-30T05:25:52.900Z,25.73
2022-09-30T05:27:32.663Z,25.73
2022-09-30T05:29:12.420Z,25.75
2022-09-30T05:30:52.192Z,25.74
2022-09-30T05:32:31.964Z,25.77
2022-09-30T05:34:11.736Z,25.78
2022-09-30T05:35:51.483Z,25.79
2022-09-30T05:37:31.269Z,25.8
2022-09-30T05:39:11.056Z,25.82
2022-09-30T05:40:50.815Z,25.82
2022-09-30T05:42:30.572Z,25.84
2022-09-30T05:44:10.340Z,25.85
2022-09-30T05:45:50.125Z,25.87
2022-09-30T05:47:29.879Z,25.86
2022-09-30T05:49:09.656Z,25.95
2022-09-30T05:50:49.436Z,25.94
2022-09-30T05:52:29.213Z,25.96
2022-09-30T05:54:08.961Z,25.96
2022-09-30T05:55:48.741Z,25.98
2022-09-30T05:57:28.518Z,26
2022-09-30T05:59:08.278Z,26.01
2022-09-30T06:00:48.056Z,26.03
2022-09-30T06:02:27.844Z,26.05
2022-09-30T06:04:07.638Z,26.07
2022-09-30T06:05:47.367Z,26.09
2022-09-30T06:07:27.146Z,26.1
2022-09-30T06:09:06.925Z,26.13
2022-09-30T06:10:46.666Z,26.14
2022-09-30T06:12:26.466Z,26.16
2022-09-30T06:14:06.206Z,26.19
2022-09-30T06:15:45.985Z,26.21
2022-09-30T06:17:25.787Z,26.23
2022-09-30T06:19:05.527Z,26.25
2022-09-30T06:20:45.292Z,26.27
2022-09-30T06:22:25.073Z,26.3
2022-09-30T06:24:04.831Z,26.33
2022-09-30T06:27:24.391Z,26.39
2022-09-30T06:29:04.149Z,26.42
2022-09-30T06:30:43.906Z,26.53
2022-09-30T06:32:23.700Z,26.67
2022-09-30T06:34:03.449Z,26.81
2022-09-30T06:35:43.218Z,26.92
2022-09-30T06:37:23.002Z,27.05
2022-09-30T06:39:02.759Z,27.08
2022-09-30T06:40:42.531Z,27.3
2022-09-30T06:42:22.309Z,27.42
2022-09-30T06:44:02.263Z,27.54
2022-09-30T06:45:41.906Z,27.67
2022-09-30T06:47:21.785Z,27.82
2022-09-30T06:49:01.375Z,27.99
2022-09-30T06:50:41.208Z,28.03
2022-09-30T06:52:20.933Z,27.73
2022-09-30T06:54:00.721Z,27.64
2022-09-30T06:55:40.470Z,27.59
2022-09-30T06:57:20.250Z,27.57
2022-09-30T06:59:00.008Z,27.56
2022-09-30T07:00:39.793Z,27.54
2022-09-30T07:02:19.538Z,27.53
2022-09-30T07:03:59.323Z,27.53
2022-09-30T07:05:39.078Z,27.52
2022-09-30T07:07:18.861Z,27.53
2022-09-30T07:08:58.619Z,27.53
2022-09-30T07:10:38.395Z,27.51
2022-09-30T07:12:18.158Z,27.52
2022-09-30T07:13:57.918Z,27.53
2022-09-30T07:15:37.704Z,27.53
2022-09-30T07:17:17.464Z,27.52
2022-09-30T07:18:57.249Z,27.53
2022-09-30T07:20:37.004Z,27.53
2022-09-30T07:22:16.771Z,27.54
2022-09-30T07:23:56.545Z,27.55
2022-09-30T07:27:16.078Z,27.55
2022-09-30T07:28:55.857Z,27.56
2022-09-30T07:30:35.624Z,27.46
2022-09-30T07:32:15.392Z,27.57
2022-09-30T07:33:55.168Z,27.57
2022-09-30T07:35:34.929Z,27.59
2022-09-30T07:37:14.715Z,27.59
2022-09-30T07:38:54.489Z,27.59
2022-09-30T07:40:34.250Z,27.6
2022-09-30T07:42:14.012Z,27.62
2022-09-30T07:43:53.799Z,27.62
2022-09-30T07:45:33.553Z,27.63
2022-09-30T07:47:13.332Z,27.64
2022-09-30T07:48:53.088Z,27.7
2022-09-30T07:50:32.874Z,27.87
2022-09-30T07:52:12.645Z,27.72
2022-09-30T07:53:52.401Z,27.7
2022-09-30T07:55:32.202Z,27.7
2022-09-30T07:57:11.943Z,27.71
2022-09-30T07:58:51.711Z,27.71
2022-09-30T08:00:31.488Z,27.71
2022-09-30T08:02:11.251Z,27.71
2022-09-30T08:03:51.031Z,27.76
2022-09-30T08:07:10.577Z,28.7
2022-09-30T08:08:50.394Z,30.01
2022-09-30T08:10:30.125Z,29.49
2022-09-30T08:12:09.922Z,29.48
2022-09-30T08:13:49.649Z,29.48
2022-09-30T08:15:29.458Z,29.47
2022-09-30T08:17:09.325Z,29.45
2022-09-30T08:18:48.969Z,29.44
2022-09-30T08:20:28.740Z,29.42
2022-09-30T08:22:08.499Z,29.41
2022-09-30T08:23:48.257Z,29.42
2022-09-30T08:25:28.037Z,29.42
2022-09-30T08:27:07.814Z,29.44
2022-09-30T08:28:47.577Z,29.42
2022-09-30T08:30:27.354Z,29.44
2022-09-30T08:32:07.126Z,29.44
2022-09-30T08:33:46.901Z,29.42
2022-09-30T08:35:26.663Z,29.42
2022-09-30T08:37:06.443Z,29.42
2022-09-30T08:38:46.198Z,29.41
2022-09-30T08:40:25.988Z,29.43
2022-09-30T08:42:05.769Z,29.39
2022-09-30T08:43:45.523Z,29.41
2022-09-30T08:45:25.281Z,29.39
2022-09-30T08:47:05.060Z,29.39
2022-09-30T08:48:44.832Z,29.31
2022-09-30T08:50:24.591Z,29.41
2022-09-30T08:52:04.362Z,29.38
2022-09-30T08:53:44.158Z,29.39
2022-09-30T08:55:23.911Z,29.38
2022-09-30T08:57:03.684Z,29.39
2022-09-30T08:58:43.454Z,29.37
2022-09-30T09:00:23.217Z,29.39
2022-09-30T09:02:02.986Z,29.37
2022-09-30T09:03:42.773Z,29.35
2022-09-30T09:05:22.526Z,29.36
2022-09-30T09:07:02.310Z,29.35
2022-09-30T09:08:42.069Z,29.35
2022-09-30T09:10:21.841Z,29.36
2022-09-30T09:12:01.621Z,29.36
2022-09-30T09:13:41.400Z,29.34
2022-09-30T09:15:21.150Z,29.37
2022-09-30T09:17:00.930Z,29.33
2022-09-30T09:18:40.746Z,29.34
2022-09-30T09:20:20.468Z,29.32
2022-09-30T09:22:00.238Z,29.36
2022-09-30T09:23:39.999Z,29.35
2022-09-30T09:25:19.780Z,29.34
2022-09-30T09:26:59.546Z,29.33
2022-09-30T09:28:39.307Z,29.32
2022-09-30T09:30:19.088Z,29.31
2022-09-30T09:31:58.970Z,29.34
2022-09-30T09:33:38.647Z,29.33
2022-09-30T09:35:18.399Z,29.32
2022-09-30T09:36:58.188Z,29.32
2022-09-30T09:38:37.943Z,29.33
2022-09-30T09:40:17.697Z,29.28
2022-09-30T09:41:57.469Z,29.33
2022-09-30T09:43:37.254Z,29.32
2022-09-30T09:45:17.027Z,29.32
2022-09-30T09:46:56.791Z,29.32
2022-09-30T09:48:36.566Z,29.3
2022-09-30T09:50:16.324Z,29.3
2022-09-30T09:51:56.096Z,29.27
2022-09-30T09:53:35.877Z,29.29
2022-09-30T09:55:15.634Z,29.28
2022-09-30T09:56:55.415Z,29.3
2022-09-30T09:58:35.173Z,29.29
2022-09-30T10:00:14.947Z,29.27
2022-09-30T10:01:54.737Z,29.26
2022-09-30T10:03:34.501Z,29.27
2022-09-30T10:05:14.276Z,29.27
2022-09-30T10:06:54.048Z,29.17
2022-09-30T10:08:33.801Z,29.26
2022-09-30T10:10:13.568Z,29.24
2022-09-30T10:11:53.350Z,29.24
2022-09-30T10:13:33.109Z,29.24
2022-09-30T10:15:12.891Z,29.27
2022-09-30T10:16:52.652Z,29.28
2022-09-30T10:18:32.433Z,29.28
2022-09-30T10:20:12.204Z,29.24
2022-09-30T10:21:51.971Z,29.24
2022-09-30T10:23:31.747Z,29.23
2022-09-30T10:25:11.504Z,29.21
2022-09-30T10:26:51.274Z,29.24
2022-09-30T10:28:31.061Z,29.22
2022-09-30T10:30:10.812Z,29.21
2022-09-30T10:31:50.585Z,29.24
2022-09-30T10:33:30.365Z,29.24
2022-09-30T10:35:10.127Z,29.21
2022-09-30T10:36:49.900Z,29.24
2022-09-30T10:38:29.676Z,29.21
2022-09-30T10:40:09.444Z,29.24
2022-09-30T10:41:49.214Z,29.21
2022-09-30T10:43:28.969Z,29.23
2022-09-30T10:45:08.751Z,29.18
2022-09-30T10:46:48.525Z,29.2
2022-09-30T10:48:28.351Z,29.08
2022-09-30T10:50:08.055Z,29.22
2022-09-30T10:51:47.846Z,29.2
2022-09-30T10:53:27.612Z,29.21
2022-09-30T10:55:07.376Z,29.2
2022-09-30T10:56:47.159Z,29.19
2022-09-30T10:58:26.922Z,29.18
2022-09-30T11:00:06.690Z,29.19
2022-09-30T11:01:46.469Z,29.2
2022-09-30T11:03:26.248Z,29.19
2022-09-30T11:05:06.011Z,29.18
2022-09-30T11:06:45.778Z,29.19
2022-09-30T11:08:25.536Z,28.16
2022-09-30T11:10:05.310Z,27.84
2022-09-30T11:13:24.836Z,27.62
2022-09-30T11:15:04.610Z,27.54
2022-09-30T11:16:44.380Z,27.47
2022-09-30T11:18:24.153Z,27.41
2022-09-30T11:20:03.914Z,27.35
2022-09-30T11:21:43.695Z,27.3
2022-09-30T11:23:23.463Z,27.31
2022-09-30T11:25:03.233Z,27.34
2022-09-30T11:26:43.001Z,27.34
2022-09-30T11:28:22.760Z,27.35
2022-09-30T11:30:02.554Z,27.34
2022-09-30T11:31:42.316Z,27.34
2022-09-30T11:33:22.085Z,27.34
2022-09-30T11:35:01.856Z,27.34
2022-09-30T11:36:41.629Z,27.33
2022-09-30T11:38:21.412Z,27.33
2022-09-30T11:40:01.175Z,27.33
2022-09-30T11:41:40.931Z,27.33
2022-09-30T11:43:20.709Z,27.32
2022-09-30T11:45:00.467Z,27.32
2022-09-30T11:46:40.245Z,27.34
2022-09-30T11:48:20.018Z,27.33
2022-09-30T11:49:59.795Z,27.35
2022-09-30T11:51:39.552Z,27.37
2022-09-30T11:54:59.105Z,27.33
2022-09-30T11:56:38.864Z,27.34
2022-09-30T11:58:18.652Z,27.34
2022-09-30T11:59:58.407Z,27.36
2022-09-30T12:01:38.174Z,27.37
2022-09-30T12:03:17.953Z,27.36
2022-09-30T12:04:57.721Z,27.36
2022-09-30T12:08:17.254Z,27.34
2022-09-30T12:09:57.037Z,27.35
2022-09-30T12:11:36.798Z,27.32
2022-09-30T12:13:16.568Z,27.31
2022-09-30T12:14:56.348Z,27.33
2022-09-30T12:16:36.107Z,27.2
2022-09-30T12:18:15.877Z,27.3
2022-09-30T12:19:55.642Z,27.3
2022-09-30T12:21:35.424Z,27.3
2022-09-30T12:23:15.189Z,27.29
2022-09-30T12:24:54.967Z,27.3
2022-09-30T12:26:34.733Z,27.3
2022-09-30T12:28:14.507Z,27.31
2022-09-30T12:29:54.279Z,27.31
2022-09-30T12:31:34.055Z,27.32
2022-09-30T12:33:13.824Z,27.31
2022-09-30T12:34:53.591Z,27.31
2022-09-30T12:36:33.369Z,27.3
2022-09-30T12:38:13.128Z,27.31
2022-09-30T12:39:52.902Z,27.3
2022-09-30T12:41:32.656Z,27.31
2022-09-30T12:43:12.444Z,27.31
2022-09-30T12:44:52.195Z,27.31
2022-09-30T12:46:31.990Z,27.31
2022-09-30T12:48:11.746Z,27.29
2022-09-30T12:49:51.528Z,27.29
2022-09-30T12:51:31.291Z,27.29
2022-09-30T12:53:11.113Z,27.29
2022-09-30T12:54:50.845Z,27.31
2022-09-30T12:56:30.600Z,27.28
2022-09-30T12:58:10.379Z,27.31
2022-09-30T12:59:50.152Z,27.29
2022-09-30T13:01:29.912Z,27.29
2022-09-30T13:03:09.691Z,27.28
2022-09-30T13:04:49.454Z,27.3
2022-09-30T13:06:29.228Z,27.3
2022-09-30T13:08:09.005Z,27.29
2022-09-30T13:09:48.761Z,27.31
2022-09-30T13:11:28.529Z,27.3
2022-09-30T13:13:08.315Z,27.29
2022-09-30T13:14:48.121Z,27.29
2022-09-30T13:16:27.839Z,27.28
2022-09-30T13:18:07.610Z,27.28
2022-09-30T13:19:47.398Z,27.27
2022-09-30T13:21:27.179Z,27.26
2022-09-30T13:23:06.938Z,27.27
2022-09-30T13:24:46.701Z,27.27
2022-09-30T13:26:26.459Z,27.27
2022-09-30T13:28:06.239Z,27.29
2022-09-30T13:29:46.013Z,27.29
2022-09-30T13:31:25.785Z,27.29
2022-09-30T13:36:25.094Z,27.27
2022-09-30T13:38:04.854Z,27.26
2022-09-30T13:39:44.630Z,27.27
2022-09-30T13:41:24.407Z,27.26
2022-09-30T13:43:04.166Z,27.28
2022-09-30T13:44:43.936Z,27.28
2022-09-30T13:46:23.729Z,27.28
2022-09-30T13:48:03.485Z,27.28
2022-09-30T13:49:43.259Z,27.27
2022-09-30T13:51:23.026Z,27.27
2022-09-30T13:53:02.804Z,27.28
2022-09-30T13:54:42.555Z,27.25
2022-09-30T13:56:22.335Z,27.25
2022-09-30T13:58:02.114Z,27.25
2022-09-30T13:59:41.876Z,27.24
2022-09-30T14:01:21.663Z,27.26
2022-09-30T14:03:01.414Z,27.26
2022-09-30T14:04:41.185Z,27.25
2022-09-30T14:06:20.962Z,27.26
2022-09-30T14:08:00.724Z,27.26
2022-09-30T14:09:40.509Z,27.24
2022-09-30T14:11:20.288Z,27.26
2022-09-30T14:13:00.043Z,27.23
2022-09-30T14:14:39.815Z,27.23
2022-09-30T14:16:19.592Z,27.23
2022-09-30T14:17:59.352Z,27.24
2022-09-30T14:19:39.124Z,27.23
2022-09-30T14:21:18.891Z,27.25
2022-09-30T14:22:58.661Z,27.23
2022-09-30T14:24:38.439Z,27.25
2022-09-30T14:26:18.203Z,27.24
2022-09-30T14:27:57.963Z,27.25
2022-09-30T14:29:37.744Z,27.24
2022-09-30T14:31:17.573Z,27.23
2022-09-30T14:32:57.333Z,27.23
2022-09-30T14:34:37.079Z,27.22
2022-09-30T14:36:16.826Z,27.23
2022-09-30T14:37:56.585Z,27.23
2022-09-30T14:39:36.363Z,27.25
2022-09-30T14:41:16.135Z,27.24
2022-09-30T14:42:55.910Z,27.25
2022-09-30T14:44:35.679Z,27.24
2022-09-30T14:46:15.452Z,27.23
2022-09-30T14:47:55.232Z,27.24
2022-09-30T14:49:34.976Z,27.23
2022-09-30T14:51:14.756Z,27.23
2022-09-30T14:52:54.538Z,27.14
2022-09-30T14:54:34.298Z,27.23
2022-09-30T14:56:14.065Z,27.22
2022-09-30T14:57:53.857Z,27.22
2022-09-30T14:59:33.617Z,27.22
2022-09-30T15:01:13.377Z,27.22
2022-09-30T15:02:53.147Z,27.22
2022-09-30T15:04:32.925Z,27.23
2022-09-30T15:06:12.685Z,27.22
2022-09-30T15:07:52.454Z,27.22
2022-09-30T15:09:32.232Z,27.21
2022-09-30T15:11:11.999Z,27.23
2022-09-30T15:12:51.772Z,27.22
2022-09-30T15:14:31.533Z,27.22
2022-09-30T15:16:11.344Z,27.22
2022-09-30T15:17:51.077Z,27.2
2022-09-30T15:19:30.844Z,27.2
2022-09-30T15:21:10.619Z,27.21
2022-09-30T15:22:50.392Z,27.2
2022-09-30T15:24:30.169Z,27.21
2022-09-30T15:26:09.935Z,27.21
2022-09-30T15:27:49.688Z,27.22
2022-09-30T15:29:29.471Z,27.22
2022-09-30T15:31:09.244Z,27.23
2022-09-30T15:32:49.009Z,27.22
2022-09-30T15:34:28.806Z,27.23
2022-09-30T15:36:08.545Z,27.25
2022-09-30T15:37:48.309Z,27.26
2022-09-30T15:39:28.150Z,27.27
2022-09-30T15:41:07.864Z,27.26
2022-09-30T15:42:47.616Z,27.26
2022-09-30T15:44:27.413Z,27.14
2022-09-30T15:46:07.325Z,27.26
2022-09-30T15:47:46.945Z,27.26
2022-09-30T15:49:26.704Z,27.25
2022-09-30T15:51:06.480Z,27.25
2022-09-30T15:52:46.242Z,27.24
2022-09-30T15:54:26.010Z,27.25
2022-09-30T15:56:05.798Z,27.25
2022-09-30T15:57:45.557Z,27.26
2022-09-30T15:59:25.331Z,27.25
2022-09-30T16:01:05.102Z,27.24
2022-09-30T16:02:44.881Z,27.23
2022-09-30T16:04:24.635Z,27.24
2022-09-30T16:06:04.407Z,27.24
2022-09-30T16:07:44.170Z,27.23
2022-09-30T16:09:24.018Z,27.23
2022-09-30T16:11:03.715Z,27.23
2022-09-30T16:12:43.546Z,27.23
2022-09-30T16:14:23.262Z,27.22
2022-09-30T16:16:03.030Z,27.22
2022-09-30T16:17:42.790Z,27.2
2022-09-30T16:19:22.569Z,27.21
2022-09-30T16:21:02.337Z,27.21
2022-09-30T16:22:42.102Z,27.21
2022-09-30T16:24:21.878Z,27.2
2022-09-30T16:26:01.635Z,27.18
2022-09-30T16:27:41.416Z,27.18
2022-09-30T16:29:21.190Z,27.16
2022-09-30T16:31:00.969Z,27.1
2022-09-30T16:32:40.733Z,27.06
2022-09-30T16:34:20.491Z,27.03
2022-09-30T16:36:00.266Z,26.87
2022-09-30T16:37:40.027Z,26.97
2022-09-30T16:39:19.792Z,26.92
2022-09-30T16:40:59.553Z,26.89
2022-09-30T16:42:39.335Z,26.87
2022-09-30T16:44:19.086Z,26.84
2022-09-30T16:45:58.867Z,26.8
2022-09-30T16:47:38.632Z,26.78
2022-09-30T16:49:18.429Z,26.75
2022-09-30T16:50:58.172Z,26.72
2022-09-30T16:52:37.938Z,26.71
2022-09-30T16:54:17.715Z,26.68
2022-09-30T16:55:57.473Z,26.65
2022-09-30T16:57:37.238Z,26.63
2022-09-30T16:59:17.000Z,26.61
2022-09-30T17:00:56.780Z,26.48
2022-09-30T17:02:36.543Z,26.57
2022-09-30T17:04:16.305Z,26.55
2022-09-30T17:05:56.073Z,26.53
2022-09-30T17:07:35.838Z,26.52
2022-09-30T17:09:15.596Z,26.51
2022-09-30T17:10:55.372Z,26.5
2022-09-30T17:12:35.141Z,26.49
2022-09-30T17:14:14.904Z,26.47
2022-09-30T17:15:54.678Z,26.46
2022-09-30T17:17:34.433Z,26.45
2022-09-30T17:19:14.204Z,26.44
2022-09-30T17:20:53.970Z,26.43
2022-09-30T17:22:33.756Z,26.42
2022-09-30T17:24:13.522Z,26.41
2022-09-30T17:25:53.285Z,26.31
2022-09-30T17:27:33.057Z,26.39
2022-09-30T17:29:12.815Z,26.38
2022-09-30T17:30:52.576Z,26.38
2022-09-30T17:32:32.346Z,26.37
2022-09-30T17:34:12.110Z,26.35
2022-09-30T17:35:51.887Z,26.35
2022-09-30T17:37:31.676Z,26.35
2022-09-30T17:39:11.414Z,26.33
2022-09-30T17:40:51.239Z,26.33
2022-09-30T17:42:30.978Z,26.32
2022-09-30T17:44:10.720Z,26.32
2022-09-30T17:45:50.480Z,26.31
2022-09-30T17:47:30.263Z,26.3
2022-09-30T17:49:10.035Z,26.3
2022-09-30T17:50:49.810Z,26.2
2022-09-30T17:52:29.561Z,26.29
2022-09-30T17:54:09.333Z,26.28
2022-09-30T17:55:49.090Z,26.27
2022-09-30T17:57:28.867Z,26.27
2022-09-30T17:59:08.633Z,26.26
2022-09-30T18:00:48.401Z,26.26
2022-09-30T18:02:28.167Z,26.25
2022-09-30T18:04:07.930Z,26.25
2022-09-30T18:05:47.707Z,26.24
2022-09-30T18:07:27.470Z,26.24
2022-09-30T18:09:07.227Z,26.23
2022-09-30T18:10:47.008Z,26.23
2022-09-30T18:12:26.775Z,26.23
2022-09-30T18:15:46.312Z,26.15
2022-09-30T18:17:26.061Z,26.21
2022-09-30T18:19:05.853Z,26.21
2022-09-30T18:20:45.605Z,26.2
2022-09-30T18:22:25.381Z,26.2
2022-09-30T18:24:05.137Z,26.2
2022-09-30T18:25:44.912Z,26.19
2022-09-30T18:27:24.671Z,26.19
2022-09-30T18:29:04.618Z,26.2
2022-09-30T18:32:23.999Z,26.19
2022-09-30T18:34:03.739Z,26.18
2022-09-30T18:35:43.554Z,26.18
2022-09-30T18:37:23.287Z,26.17
2022-09-30T18:39:03.043Z,26.17
2022-09-30T18:40:42.823Z,26.17
2022-09-30T18:42:22.583Z,26.17
2022-09-30T18:44:02.364Z,26.16
2022-09-30T18:45:42.127Z,26.16
2022-09-30T18:47:21.873Z,26.16
2022-09-30T18:49:01.655Z,26.15
2022-09-30T18:50:41.426Z,26.15
2022-09-30T18:52:21.188Z,26.15
2022-09-30T18:54:00.950Z,26.15
2022-09-30T18:55:40.719Z,26.15
2022-09-30T18:57:20.485Z,26.14
2022-09-30T18:59:00.260Z,26.15
2022-09-30T19:00:40.028Z,26.14
2022-09-30T19:02:19.792Z,26.14
2022-09-30T19:03:59.562Z,26.14
2022-09-30T19:05:39.317Z,26.14
2022-09-30T19:07:19.089Z,26.14
2022-09-30T19:08:58.863Z,26.13
2022-09-30T19:10:38.618Z,26.13
2022-09-30T19:12:18.402Z,26.13
2022-09-30T19:13:58.192Z,26.12
2022-09-30T19:15:37.932Z,26.13
2022-09-30T19:17:17.695Z,26.12
2022-09-30T19:18:57.461Z,26.12
2022-09-30T19:20:37.239Z,26.12
2022-09-30T19:22:16.997Z,26.12
2022-09-30T19:23:56.766Z,26.12
2022-09-30T19:25:36.571Z,26.12
2022-09-30T19:27:16.308Z,26.12
2022-09-30T19:28:56.072Z,26.11
2022-09-30T19:30:35.836Z,26.11
2022-09-30T19:32:15.608Z,26.11
2022-09-30T19:33:55.382Z,26.11
2022-09-30T19:37:15.023Z,26.11
2022-09-30T19:38:54.674Z,26.1
2022-09-30T19:40:34.459Z,26.11
2022-09-30T19:42:14.208Z,26.1
2022-09-30T19:43:53.973Z,26.1
2022-09-30T19:45:33.747Z,26.1
2022-09-30T19:47:13.503Z,26.1
2022-09-30T19:48:53.276Z,26.1
2022-09-30T19:50:33.046Z,26.1
2022-09-30T19:52:12.923Z,26.09
2022-09-30T19:53:52.579Z,26.09
2022-09-30T19:55:32.524Z,26.09
2022-09-30T19:57:12.143Z,26.09
2022-09-30T19:58:51.895Z,26.09
2022-09-30T20:00:31.681Z,26.09
2022-09-30T20:02:11.416Z,26.09
2022-09-30T20:03:51.183Z,26.09
2022-09-30T20:05:30.954Z,26.09
2022-09-30T20:07:10.711Z,26.08
2022-09-30T20:08:50.496Z,26.08
2022-09-30T20:10:30.253Z,26.08
2022-09-30T20:12:10.029Z,26.08
2022-09-30T20:13:49.790Z,26.08
2022-09-30T20:15:29.553Z,26.08
2022-09-30T20:17:09.326Z,26.07
2022-09-30T20:18:49.100Z,26.07
2022-09-30T20:20:28.864Z,26.08
2022-09-30T20:22:08.621Z,26.07
2022-09-30T20:23:48.404Z,26.07
2022-09-30T20:25:28.153Z,26.07
2022-09-30T20:27:07.936Z,26.07
2022-09-30T20:28:47.692Z,26.07
2022-09-30T20:30:27.456Z,26.07
2022-09-30T20:32:07.234Z,26.06
2022-09-30T20:33:46.997Z,26.06
2022-09-30T20:35:26.758Z,26.07
2022-09-30T20:37:06.549Z,26.06
2022-09-30T20:38:46.299Z,26.06
2022-09-30T20:40:26.084Z,26.06
2022-09-30T20:42:05.840Z,26.05
2022-09-30T20:43:45.603Z,26.05
2022-09-30T20:45:25.377Z,26.05
2022-09-30T20:47:05.143Z,26.05
2022-09-30T20:48:44.904Z,26.05
2022-09-30T20:50:24.698Z,26.05
2022-09-30T20:52:04.451Z,26.05
2022-09-30T20:53:44.198Z,26.05
2022-09-30T20:55:23.976Z,26.05
2022-09-30T20:57:03.739Z,26.05
2022-09-30T20:58:43.516Z,26.05
2022-09-30T21:00:23.272Z,26.04
2022-09-30T21:02:03.046Z,26.04
2022-09-30T21:03:42.809Z,26.04
2022-09-30T21:05:22.575Z,26.04
2022-09-30T21:07:02.433Z,26.04
2022-09-30T21:08:42.112Z,26.03
2022-09-30T21:10:21.888Z,26.04
2022-09-30T21:12:01.641Z,26.04
2022-09-30T21:13:41.426Z,26.04
2022-09-30T21:15:21.187Z,26.03
2022-09-30T21:18:40.708Z,26.03
2022-09-30T21:20:20.488Z,26.03
2022-09-30T21:22:00.252Z,26.03
2022-09-30T21:23:40.011Z,26.03
2022-09-30T21:25:19.788Z,26.03
2022-09-30T21:26:59.564Z,26.03
2022-09-30T21:28:39.323Z,26.02
2022-09-30T21:30:19.089Z,26.02
2022-09-30T21:31:58.863Z,26.02
2022-09-30T21:33:38.621Z,25.99
2022-09-30T21:35:18.387Z,26.02
2022-09-30T21:36:58.154Z,26.02
2022-09-30T21:38:37.935Z,26.02
2022-09-30T21:40:17.690Z,26.01
2022-09-30T21:41:57.452Z,26.02
2022-09-30T21:43:37.220Z,26.01
2022-09-30T21:45:16.985Z,26.02
2022-09-30T21:46:56.767Z,26.02
2022-09-30T21:48:36.524Z,26.01
2022-09-30T21:50:16.306Z,26.02
2022-09-30T21:51:56.063Z,26.01
2022-09-30T21:53:35.838Z,26.01